createdAt,value
2019-03-01T00:05:13.633Z,21.77
2019-03-01T00:11:06.895Z,20.77
2019-03-01T00:16:32.127Z,14.10
2019-03-01T00:21:58.105Z,20.17
2019-03-01T00:27:26.442Z,21.27
2019-03-01T00:33:06.279Z,21.80
2019-03-01T00:38:51.066Z,18.00
2019-03-01T00:44:30.196Z,23.27
2019-03-01T00:49:32.626Z,20.90
2019-03-01T00:54:32.309Z,22.87
2019-03-01T00:59:32.052Z,20.80
2019-03-01T01:04:32.022Z,23.57
2019-03-01T01:09:31.706Z,24.80
2019-03-01T01:14:31.378Z,25.43
2019-03-01T01:19:31.107Z,22.60
2019-03-01T01:24:30.750Z,23.93
2019-03-01T01:29:42.053Z,25.43
2019-03-01T01:34:41.722Z,24.33
2019-03-01T01:39:41.390Z,22.60
2019-03-01T01:44:41.063Z,26.20
2019-03-01T01:49:40.755Z,27.10
2019-03-01T01:54:40.699Z,26.93
2019-03-01T01:59:40.350Z,27.50
2019-03-01T02:04:40.094Z,26.97
2019-03-01T02:09:40.108Z,24.47
2019-03-01T02:14:39.838Z,25.00
2019-03-01T02:19:39.491Z,25.00
2019-03-01T02:24:39.146Z,24.33
2019-03-01T02:29:58.635Z,23.20
2019-03-01T02:34:58.282Z,22.60
2019-03-01T02:39:57.908Z,25.80
2019-03-01T02:44:57.586Z,24.03
2019-03-01T02:49:57.316Z,23.00
2019-03-01T02:54:56.942Z,19.80
2019-03-01T02:59:56.606Z,23.47
2019-03-01T03:04:56.572Z,23.97
2019-03-01T03:09:56.301Z,25.30
2019-03-01T03:14:55.991Z,27.47
2019-03-01T03:19:55.947Z,20.73
2019-03-01T03:24:55.623Z,24.27
2019-03-01T03:29:55.343Z,26.63
2019-03-01T03:34:54.971Z,23.33
2019-03-01T03:39:54.685Z,25.20
2019-03-01T03:44:54.376Z,25.13
2019-03-01T03:49:54.342Z,21.67
2019-03-01T03:54:54.076Z,27.47
2019-03-01T03:59:54.132Z,28.07
2019-03-01T04:04:53.790Z,28.80
2019-03-01T04:09:53.460Z,17.90
2019-03-01T04:14:53.428Z,29.20
2019-03-01T04:19:53.071Z,21.03
2019-03-01T04:24:53.123Z,22.47
2019-03-01T04:29:53.042Z,25.40
2019-03-01T04:34:52.742Z,26.50
2019-03-01T04:39:52.459Z,23.10
2019-03-01T04:44:52.142Z,26.77
2019-03-01T04:49:51.795Z,28.20
2019-03-01T04:54:51.419Z,23.77
2019-03-01T04:59:51.379Z,20.63
2019-03-01T05:04:51.024Z,23.40
2019-03-01T05:09:50.675Z,25.93
2019-03-01T05:14:50.358Z,29.20
2019-03-01T05:19:50.258Z,27.10
2019-03-01T05:24:50.424Z,23.30
2019-03-01T05:29:50.186Z,32.90
2019-03-01T05:34:49.843Z,33.23
2019-03-01T05:39:50.066Z,36.70
2019-03-01T05:44:49.739Z,34.63
2019-03-01T05:49:49.390Z,34.37
2019-03-01T05:54:49.054Z,38.70
2019-03-01T05:59:48.706Z,34.57
2019-03-01T06:04:52.018Z,33.33
2019-03-01T06:10:17.819Z,32.40
2019-03-01T06:16:02.667Z,29.77
2019-03-01T06:21:31.879Z,32.50
2019-03-01T06:27:21.158Z,31.37
2019-03-01T06:32:52.490Z,31.10
2019-03-01T06:38:47.792Z,32.10
2019-03-01T06:44:11.831Z,30.70
2019-03-01T06:49:17.574Z,30.97
2019-03-01T06:54:17.233Z,30.60
2019-03-01T06:59:17.290Z,30.77
2019-03-01T07:04:21.614Z,30.30
2019-03-01T07:09:21.450Z,27.00
2019-03-01T07:14:21.156Z,28.00
2019-03-01T07:19:21.206Z,27.93
2019-03-01T07:24:20.887Z,24.70
2019-03-01T07:29:20.613Z,29.77
2019-03-01T07:34:20.294Z,25.03
2019-03-01T07:39:20.241Z,23.17
2019-03-01T07:44:19.914Z,22.87
2019-03-01T07:49:19.559Z,16.03
2019-03-01T07:54:19.191Z,18.43
2019-03-01T07:59:18.862Z,20.60
2019-03-01T08:04:18.534Z,21.40
2019-03-01T08:09:18.535Z,23.23
2019-03-01T08:14:18.538Z,23.03
2019-03-01T08:19:22.610Z,21.20
2019-03-01T08:24:20.170Z,22.77
2019-03-01T08:29:19.927Z,22.97
2019-03-01T08:34:20.594Z,26.70
2019-03-01T08:39:20.247Z,25.63
2019-03-01T08:44:22.926Z,26.60
2019-03-01T08:49:21.539Z,27.30
2019-03-01T08:54:22.871Z,23.07
2019-03-01T08:59:22.548Z,26.80
2019-03-01T09:04:22.490Z,18.40
2019-03-01T09:09:22.139Z,24.60
2019-03-01T09:14:22.662Z,21.37
2019-03-01T09:19:35.583Z,23.70
2019-03-01T09:24:35.924Z,21.90
2019-03-01T09:29:41.564Z,20.97
2019-03-01T09:34:38.096Z,17.67
2019-03-01T09:39:38.003Z,16.97
2019-03-01T09:44:38.452Z,20.23
2019-03-01T09:49:38.930Z,18.37
2019-03-01T09:54:39.919Z,22.50
2019-03-01T09:59:39.566Z,16.30
2019-03-01T10:04:39.195Z,18.10
2019-03-01T10:09:38.935Z,15.40
2019-03-01T10:14:38.601Z,20.63
2019-03-01T10:19:38.243Z,16.20
2019-03-01T10:24:37.983Z,17.00
2019-03-01T10:29:37.964Z,14.23
2019-03-01T10:34:37.597Z,11.67
2019-03-01T10:39:37.601Z,11.80
2019-03-01T10:44:37.254Z,10.90
2019-03-01T10:49:37.135Z,12.80
2019-03-01T10:54:36.774Z,11.70
2019-03-01T10:59:36.426Z,10.90
2019-03-01T11:04:36.103Z,10.27
2019-03-01T11:09:35.728Z,9.90
2019-03-01T11:14:35.394Z,8.97
2019-03-01T11:19:35.051Z,9.43
2019-03-01T11:24:34.759Z,11.57
2019-03-01T11:29:34.782Z,10.83
2019-03-01T11:34:36.130Z,11.47
2019-03-01T11:39:36.059Z,10.23
2019-03-01T11:44:35.722Z,8.97
2019-03-01T11:49:35.701Z,9.87
2019-03-01T11:54:35.398Z,7.90
2019-03-01T11:59:35.104Z,10.00
2019-03-01T12:04:34.755Z,11.30
2019-03-01T12:09:34.490Z,11.63
2019-03-01T12:14:34.131Z,12.60
2019-03-01T12:19:33.782Z,12.23
2019-03-01T12:24:33.443Z,11.80
2019-03-01T12:29:33.418Z,15.67
2019-03-01T12:34:33.163Z,13.83
2019-03-01T12:39:32.798Z,13.97
2019-03-01T12:44:32.499Z,14.87
2019-03-01T12:49:32.195Z,11.57
2019-03-01T12:54:31.846Z,11.77
2019-03-01T12:59:31.784Z,11.37
2019-03-01T13:04:31.450Z,10.13
2019-03-01T13:09:31.083Z,8.73
2019-03-01T13:14:30.736Z,10.60
2019-03-01T13:19:30.395Z,8.27
2019-03-01T13:24:30.054Z,7.50
2019-03-01T13:29:29.700Z,7.23
2019-03-01T13:34:29.456Z,6.27
2019-03-01T13:39:29.098Z,5.93
2019-03-01T13:44:29.122Z,5.73
2019-03-01T13:49:30.373Z,6.40
2019-03-01T13:54:30.186Z,6.00
2019-03-01T13:59:29.922Z,7.23
2019-03-01T14:04:29.558Z,5.10
2019-03-01T14:09:29.276Z,5.50
2019-03-01T14:14:29.399Z,4.50
2019-03-01T14:19:29.358Z,4.10
2019-03-01T14:24:29.524Z,3.97
2019-03-01T14:29:30.115Z,3.10
2019-03-01T14:34:29.859Z,3.40
2019-03-01T14:39:29.542Z,2.80
2019-03-01T14:44:30.729Z,4.43
2019-03-01T14:49:30.910Z,4.77
2019-03-01T14:54:30.550Z,4.83
2019-03-01T14:59:44.655Z,3.47
2019-03-01T15:04:44.326Z,5.20
2019-03-01T15:09:43.974Z,5.60
2019-03-01T15:14:49.623Z,2.87
2019-03-01T15:19:45.443Z,2.70
2019-03-01T15:24:45.310Z,2.97
2019-03-01T15:29:45.211Z,4.43
2019-03-01T15:34:44.938Z,6.93
2019-03-01T15:39:44.589Z,6.00
2019-03-01T15:44:44.214Z,5.60
2019-03-01T15:49:44.099Z,6.37
2019-03-01T15:54:43.751Z,6.63
2019-03-01T15:59:44.308Z,7.13
2019-03-01T16:04:44.852Z,4.73
2019-03-01T16:09:44.715Z,6.37
2019-03-01T16:14:45.330Z,5.10
2019-03-01T16:19:47.006Z,6.33
2019-03-01T16:24:47.727Z,6.30
2019-03-01T16:29:47.396Z,5.60
2019-03-01T16:34:47.083Z,6.00
2019-03-01T16:39:46.719Z,8.90
2019-03-01T16:44:46.367Z,4.70
2019-03-01T16:49:46.047Z,4.20
2019-03-01T16:54:47.614Z,3.20
2019-03-01T16:59:47.058Z,4.07
2019-03-01T17:04:46.734Z,4.33
2019-03-01T17:09:47.322Z,4.10
2019-03-01T17:14:48.099Z,4.80
2019-03-01T17:20:07.652Z,5.70
2019-03-01T17:25:07.824Z,4.70
2019-03-01T17:30:11.177Z,4.63
2019-03-01T17:35:11.155Z,5.20
2019-03-01T17:40:11.316Z,3.40
2019-03-01T17:45:13.668Z,4.43
2019-03-01T17:50:14.010Z,3.30
2019-03-01T17:55:13.752Z,4.20
2019-03-01T18:00:16.418Z,4.00
2019-03-01T18:05:16.147Z,4.30
2019-03-01T18:10:16.047Z,5.70
2019-03-01T18:15:15.802Z,5.23
2019-03-01T18:20:15.595Z,3.67
2019-03-01T18:25:15.259Z,3.80
2019-03-01T18:30:19.824Z,3.90
2019-03-01T18:35:18.699Z,3.80
2019-03-01T18:40:18.450Z,4.60
2019-03-01T18:45:19.071Z,3.10
2019-03-01T18:50:21.845Z,2.90
2019-03-01T18:55:21.549Z,2.93
2019-03-01T19:00:23.885Z,2.90
2019-03-01T19:05:23.612Z,2.83
2019-03-01T19:10:23.986Z,3.90
2019-03-01T19:15:25.327Z,2.97
2019-03-01T19:20:44.334Z,3.13
2019-03-01T19:25:44.058Z,3.00
2019-03-01T19:30:45.960Z,3.57
2019-03-01T19:35:46.576Z,2.50
2019-03-01T19:40:47.141Z,2.83
2019-03-01T19:45:48.022Z,3.73
2019-03-01T19:50:48.751Z,3.90
2019-03-01T19:55:48.390Z,4.70
2019-03-01T20:00:48.076Z,3.53
2019-03-01T20:05:47.810Z,4.57
2019-03-01T20:10:47.633Z,2.90
2019-03-01T20:15:48.895Z,3.27
2019-03-01T20:20:48.638Z,3.40
2019-03-01T20:25:51.027Z,2.80
2019-03-01T20:31:08.967Z,3.20
2019-03-01T20:36:08.698Z,3.47
2019-03-01T20:41:08.683Z,3.80
2019-03-01T20:46:08.624Z,3.73
2019-03-01T20:51:08.331Z,2.80
2019-03-01T20:56:09.852Z,3.10
2019-03-01T21:01:10.133Z,3.40
2019-03-01T21:06:09.850Z,3.20
2019-03-01T21:11:10.258Z,3.40
2019-03-01T21:16:10.055Z,3.20
2019-03-01T21:21:09.760Z,1.93
2019-03-01T21:26:12.106Z,3.47
2019-03-01T21:31:11.859Z,2.23
2019-03-01T21:36:12.976Z,3.70
2019-03-01T21:41:12.956Z,2.90
2019-03-01T21:46:13.023Z,2.30
2019-03-01T21:51:14.847Z,2.00
2019-03-01T21:56:14.571Z,3.30
2019-03-01T22:01:14.802Z,2.70
2019-03-01T22:06:14.473Z,2.17
2019-03-01T22:11:14.559Z,2.47
2019-03-01T22:16:15.322Z,1.93
2019-03-01T22:21:16.923Z,2.20
2019-03-01T22:26:16.987Z,3.57
2019-03-01T22:31:36.266Z,3.90
2019-03-01T22:36:49.459Z,2.23
2019-03-01T22:41:49.959Z,2.60
2019-03-01T22:46:49.603Z,2.20
2019-03-01T22:51:49.612Z,2.47
2019-03-01T22:56:50.643Z,2.90
2019-03-01T23:01:53.374Z,3.60
2019-03-01T23:06:53.093Z,2.93
2019-03-01T23:11:53.043Z,3.13
2019-03-01T23:16:54.472Z,2.30
2019-03-01T23:21:54.042Z,3.07
2019-03-01T23:26:56.752Z,2.60
2019-03-01T23:31:54.995Z,2.50
2019-03-01T23:36:55.134Z,2.70
2019-03-01T23:41:55.091Z,2.60
2019-03-01T23:46:54.747Z,3.77
2019-03-01T23:51:54.737Z,2.37
2019-03-01T23:56:54.450Z,3.17
